sensor_id;sensor_type;location;lat;lon;timestamp;temperature;humidity
23405;DHT22;11875;49.356;2.718;2023-06-10T00:00:43;24.60;92.30
23405;DHT22;11875;49.356;2.718;2023-06-10T00:03:10;24.60;92.20
23405;DHT22;11875;49.356;2.718;2023-06-10T00:05:36;24.60;92.20
23405;DHT22;11875;49.356;2.718;2023-06-10T00:08:04;24.40;92.40
23405;DHT22;11875;49.356;2.718;2023-06-10T00:10:36;24.00;93.00
23405;DHT22;11875;49.356;2.718;2023-06-10T00:13:04;23.80;93.10
23405;DHT22;11875;49.356;2.718;2023-06-10T00:15:30;23.60;93.20
23405;DHT22;11875;49.356;2.718;2023-06-10T00:17:57;23.50;93.40
23405;DHT22;11875;49.356;2.718;2023-06-10T00:20:22;23.40;93.60
23405;DHT22;11875;49.356;2.718;2023-06-10T00:22:52;23.30;93.90
23405;DHT22;11875;49.356;2.718;2023-06-10T00:25:18;23.20;93.90
23405;DHT22;11875;49.356;2.718;2023-06-10T00:27:44;23.20;94.10
23405;DHT22;11875;49.356;2.718;2023-06-10T00:30:10;23.10;94.10
23405;DHT22;11875;49.356;2.718;2023-06-10T00:32:36;23.10;94.10
23405;DHT22;11875;49.356;2.718;2023-06-10T00:35:03;23.20;94.20
23405;DHT22;11875;49.356;2.718;2023-06-10T00:37:29;23.20;94.50
23405;DHT22;11875;49.356;2.718;2023-06-10T00:39:55;23.00;94.30
23405;DHT22;11875;49.356;2.718;2023-06-10T00:42:21;23.00;94.60
23405;DHT22;11875;49.356;2.718;2023-06-10T00:44:50;23.10;94.30
23405;DHT22;11875;49.356;2.718;2023-06-10T00:47:16;23.20;94.20
23405;DHT22;11875;49.356;2.718;2023-06-10T00:49:42;23.10;94.30
23405;DHT22;11875;49.356;2.718;2023-06-10T00:52:08;23.10;94.30
23405;DHT22;11875;49.356;2.718;2023-06-10T00:54:34;23.00;94.30
23405;DHT22;11875;49.356;2.718;2023-06-10T00:57:01;23.00;94.30
23405;DHT22;11875;49.356;2.718;2023-06-10T00:59:28;23.00;94.30
23405;DHT22;11875;49.356;2.718;2023-06-10T01:01:56;23.20;94.30
23405;DHT22;11875;49.356;2.718;2023-06-10T01:04:21;23.00;94.30
23405;DHT22;11875;49.356;2.718;2023-06-10T01:10:02;22.60;94.80
23405;DHT22;11875;49.356;2.718;2023-06-10T01:12:47;22.40;95.00
23405;DHT22;11875;49.356;2.718;2023-06-10T01:15:16;22.20;95.20
23405;DHT22;11875;49.356;2.718;2023-06-10T01:18:02;22.10;95.40
23405;DHT22;11875;49.356;2.718;2023-06-10T01:20:32;22.20;95.50
23405;DHT22;11875;49.356;2.718;2023-06-10T01:23:01;22.20;95.50
23405;DHT22;11875;49.356;2.718;2023-06-10T01:25:29;22.20;95.50
23405;DHT22;11875;49.356;2.718;2023-06-10T01:30:39;22.30;95.50
23405;DHT22;11875;49.356;2.718;2023-06-10T01:33:07;22.20;95.60
23405;DHT22;11875;49.356;2.718;2023-06-10T01:35:37;22.10;95.50
23405;DHT22;11875;49.356;2.718;2023-06-10T01:38:03;22.30;95.50
23405;DHT22;11875;49.356;2.718;2023-06-10T01:40:29;22.50;95.30
23405;DHT22;11875;49.356;2.718;2023-06-10T01:42:56;22.60;95.20
23405;DHT22;11875;49.356;2.718;2023-06-10T01:45:22;22.70;95.10
23405;DHT22;11875;49.356;2.718;2023-06-10T01:47:47;22.70;95.00
23405;DHT22;11875;49.356;2.718;2023-06-10T01:50:13;22.60;95.50
23405;DHT22;11875;49.356;2.718;2023-06-10T01:52:38;22.70;96.10
23405;DHT22;11875;49.356;2.718;2023-06-10T01:55:04;22.70;96.10
23405;DHT22;11875;49.356;2.718;2023-06-10T01:57:30;22.80;96.10
23405;DHT22;11875;49.356;2.718;2023-06-10T01:59:56;22.90;95.90
23405;DHT22;11875;49.356;2.718;2023-06-10T02:02:21;22.90;95.90
23405;DHT22;11875;49.356;2.718;2023-06-10T02:04:47;22.90;96.00
23405;DHT22;11875;49.356;2.718;2023-06-10T02:07:13;22.90;95.90
23405;DHT22;11875;49.356;2.718;2023-06-10T02:09:38;23.00;95.90
23405;DHT22;11875;49.356;2.718;2023-06-10T02:12:06;23.00;96.20
23405;DHT22;11875;49.356;2.718;2023-06-10T02:14:33;22.90;95.90
23405;DHT22;11875;49.356;2.718;2023-06-10T02:16:58;22.90;95.90
23405;DHT22;11875;49.356;2.718;2023-06-10T02:19:24;23.00;95.80
23405;DHT22;11875;49.356;2.718;2023-06-10T02:21:52;22.90;95.90
23405;DHT22;11875;49.356;2.718;2023-06-10T02:24:18;22.90;95.90
23405;DHT22;11875;49.356;2.718;2023-06-10T02:26:44;22.90;95.90
23405;DHT22;11875;49.356;2.718;2023-06-10T02:29:10;22.80;95.80
23405;DHT22;11875;49.356;2.718;2023-06-10T02:31:36;22.70;95.80
23405;DHT22;11875;49.356;2.718;2023-06-10T02:34:03;22.70;96.20
23405;DHT22;11875;49.356;2.718;2023-06-10T02:36:29;22.70;95.90
23405;DHT22;11875;49.356;2.718;2023-06-10T02:38:54;22.60;95.90
23405;DHT22;11875;49.356;2.718;2023-06-10T02:41:20;22.50;95.80
23405;DHT22;11875;49.356;2.718;2023-06-10T02:43:47;22.50;95.80
23405;DHT22;11875;49.356;2.718;2023-06-10T02:46:13;22.40;96.00
23405;DHT22;11875;49.356;2.718;2023-06-10T02:48:46;22.40;96.10
23405;DHT22;11875;49.356;2.718;2023-06-10T02:51:11;22.40;96.10
23405;DHT22;11875;49.356;2.718;2023-06-10T02:53:37;22.50;96.10
23405;DHT22;11875;49.356;2.718;2023-06-10T02:56:03;22.40;96.20
23405;DHT22;11875;49.356;2.718;2023-06-10T02:58:29;22.30;96.30
23405;DHT22;11875;49.356;2.718;2023-06-10T03:00:54;22.30;96.30
23405;DHT22;11875;49.356;2.718;2023-06-10T03:03:20;22.30;96.30
23405;DHT22;11875;49.356;2.718;2023-06-10T03:05:48;22.40;96.30
23405;DHT22;11875;49.356;2.718;2023-06-10T03:08:13;22.20;96.40
23405;DHT22;11875;49.356;2.718;2023-06-10T03:10:39;22.20;96.40
23405;DHT22;11875;49.356;2.718;2023-06-10T03:13:05;22.10;96.30
23405;DHT22;11875;49.356;2.718;2023-06-10T03:15:31;22.10;96.40
23405;DHT22;11875;49.356;2.718;2023-06-10T03:18:01;22.10;96.40
23405;DHT22;11875;49.356;2.718;2023-06-10T03:20:27;22.10;96.40
23405;DHT22;11875;49.356;2.718;2023-06-10T03:22:54;22.10;96.60
23405;DHT22;11875;49.356;2.718;2023-06-10T03:25:19;22.00;96.50
23405;DHT22;11875;49.356;2.718;2023-06-10T03:27:46;22.00;96.60
23405;DHT22;11875;49.356;2.718;2023-06-10T03:30:13;22.00;96.70
23405;DHT22;11875;49.356;2.718;2023-06-10T03:32:39;22.00;96.60
23405;DHT22;11875;49.356;2.718;2023-06-10T03:35:06;22.00;96.60
23405;DHT22;11875;49.356;2.718;2023-06-10T03:37:32;21.90;96.70
23405;DHT22;11875;49.356;2.718;2023-06-10T03:39:58;21.90;96.70
23405;DHT22;11875;49.356;2.718;2023-06-10T03:42:23;21.90;96.70
23405;DHT22;11875;49.356;2.718;2023-06-10T03:44:49;21.80;96.80
23405;DHT22;11875;49.356;2.718;2023-06-10T03:47:14;21.50;96.90
23405;DHT22;11875;49.356;2.718;2023-06-10T03:49:41;21.60;97.00
23405;DHT22;11875;49.356;2.718;2023-06-10T03:52:07;21.60;97.00
23405;DHT22;11875;49.356;2.718;2023-06-10T03:54:32;21.70;97.00
23405;DHT22;11875;49.356;2.718;2023-06-10T03:57:00;21.60;96.90
23405;DHT22;11875;49.356;2.718;2023-06-10T03:59:26;21.50;97.00
23405;DHT22;11875;49.356;2.718;2023-06-10T04:01:52;21.40;97.10
23405;DHT22;11875;49.356;2.718;2023-06-10T04:04:17;21.20;97.40
23405;DHT22;11875;49.356;2.718;2023-06-10T04:06:43;21.20;97.50
23405;DHT22;11875;49.356;2.718;2023-06-10T04:09:10;21.20;97.50
23405;DHT22;11875;49.356;2.718;2023-06-10T04:11:36;21.20;97.50
23405;DHT22;11875;49.356;2.718;2023-06-10T04:14:02;21.10;97.50
23405;DHT22;11875;49.356;2.718;2023-06-10T04:16:28;21.10;97.60
23405;DHT22;11875;49.356;2.718;2023-06-10T04:18:54;21.10;97.70
23405;DHT22;11875;49.356;2.718;2023-06-10T04:21:20;21.00;97.90
23405;DHT22;11875;49.356;2.718;2023-06-10T04:23:45;21.10;98.00
23405;DHT22;11875;49.356;2.718;2023-06-10T04:26:11;21.00;97.90
23405;DHT22;11875;49.356;2.718;2023-06-10T04:28:37;21.20;97.90
23405;DHT22;11875;49.356;2.718;2023-06-10T04:31:03;21.40;97.80
23405;DHT22;11875;49.356;2.718;2023-06-10T04:33:32;21.20;97.70
23405;DHT22;11875;49.356;2.718;2023-06-10T04:35:58;21.40;97.80
23405;DHT22;11875;49.356;2.718;2023-06-10T04:38:24;21.40;97.70
23405;DHT22;11875;49.356;2.718;2023-06-10T04:40:50;21.50;97.50
23405;DHT22;11875;49.356;2.718;2023-06-10T04:43:15;21.40;97.40
23405;DHT22;11875;49.356;2.718;2023-06-10T04:45:41;21.40;97.50
23405;DHT22;11875;49.356;2.718;2023-06-10T04:48:10;21.40;97.60
23405;DHT22;11875;49.356;2.718;2023-06-10T04:50:37;21.40;97.70
23405;DHT22;11875;49.356;2.718;2023-06-10T04:53:02;21.30;97.80
23405;DHT22;11875;49.356;2.718;2023-06-10T04:55:28;21.40;97.80
23405;DHT22;11875;49.356;2.718;2023-06-10T04:57:54;21.40;97.80
23405;DHT22;11875;49.356;2.718;2023-06-10T05:00:20;21.40;97.70
23405;DHT22;11875;49.356;2.718;2023-06-10T05:02:45;21.50;97.80
23405;DHT22;11875;49.356;2.718;2023-06-10T05:05:16;21.60;97.80
23405;DHT22;11875;49.356;2.718;2023-06-10T05:07:41;21.60;97.60
23405;DHT22;11875;49.356;2.718;2023-06-10T05:10:07;21.60;97.70
23405;DHT22;11875;49.356;2.718;2023-06-10T05:12:33;21.50;97.80
23405;DHT22;11875;49.356;2.718;2023-06-10T05:14:58;21.40;97.90
23405;DHT22;11875;49.356;2.718;2023-06-10T05:17:24;21.50;97.90
23405;DHT22;11875;49.356;2.718;2023-06-10T05:19:51;21.50;98.00
23405;DHT22;11875;49.356;2.718;2023-06-10T05:22:17;21.70;97.90
23405;DHT22;11875;49.356;2.718;2023-06-10T05:24:44;21.70;97.80
23405;DHT22;11875;49.356;2.718;2023-06-10T05:27:10;21.80;97.80
23405;DHT22;11875;49.356;2.718;2023-06-10T05:29:35;21.90;97.80
23405;DHT22;11875;49.356;2.718;2023-06-10T05:32:01;21.80;97.90
23405;DHT22;11875;49.356;2.718;2023-06-10T05:34:31;21.90;97.90
23405;DHT22;11875;49.356;2.718;2023-06-10T05:36:57;21.90;98.00
23405;DHT22;11875;49.356;2.718;2023-06-10T05:39:23;21.80;98.10
23405;DHT22;11875;49.356;2.718;2023-06-10T05:41:48;21.90;98.30
23405;DHT22;11875;49.356;2.718;2023-06-10T05:44:14;21.90;98.10
23405;DHT22;11875;49.356;2.718;2023-06-10T05:46:39;21.90;98.10
23405;DHT22;11875;49.356;2.718;2023-06-10T05:49:05;22.10;97.80
23405;DHT22;11875;49.356;2.718;2023-06-10T05:51:31;22.00;97.90
23405;DHT22;11875;49.356;2.718;2023-06-10T05:53:56;22.00;98.10
23405;DHT22;11875;49.356;2.718;2023-06-10T05:56:22;22.00;98.20
23405;DHT22;11875;49.356;2.718;2023-06-10T05:58:48;22.00;98.20
23405;DHT22;11875;49.356;2.718;2023-06-10T06:01:14;22.00;98.20
23405;DHT22;11875;49.356;2.718;2023-06-10T06:03:40;22.00;98.30
23405;DHT22;11875;49.356;2.718;2023-06-10T06:06:06;22.00;98.40
23405;DHT22;11875;49.356;2.718;2023-06-10T06:08:32;22.10;98.40
23405;DHT22;11875;49.356;2.718;2023-06-10T06:10:57;22.20;98.30
23405;DHT22;11875;49.356;2.718;2023-06-10T06:13:23;22.40;98.10
23405;DHT22;11875;49.356;2.718;2023-06-10T06:15:49;22.50;98.10
23405;DHT22;11875;49.356;2.718;2023-06-10T06:18:15;22.80;97.90
23405;DHT22;11875;49.356;2.718;2023-06-10T06:20:40;22.80;97.80
23405;DHT22;11875;49.356;2.718;2023-06-10T06:23:06;22.80;97.80
23405;DHT22;11875;49.356;2.718;2023-06-10T06:25:34;22.80;98.00
23405;DHT22;11875;49.356;2.718;2023-06-10T06:28:01;22.80;98.00
23405;DHT22;11875;49.356;2.718;2023-06-10T06:30:27;22.80;98.10
23405;DHT22;11875;49.356;2.718;2023-06-10T06:32:52;22.90;98.00
23405;DHT22;11875;49.356;2.718;2023-06-10T06:35:18;22.90;98.00
23405;DHT22;11875;49.356;2.718;2023-06-10T06:37:44;23.00;98.10
23405;DHT22;11875;49.356;2.718;2023-06-10T06:40:10;23.00;98.20
23405;DHT22;11875;49.356;2.718;2023-06-10T06:42:35;23.10;98.00
23405;DHT22;11875;49.356;2.718;2023-06-10T06:45:01;23.30;97.90
23405;DHT22;11875;49.356;2.718;2023-06-10T06:47:27;23.30;98.00
23405;DHT22;11875;49.356;2.718;2023-06-10T06:49:52;23.30;98.20
23405;DHT22;11875;49.356;2.718;2023-06-10T06:52:18;23.40;98.10
23405;DHT22;11875;49.356;2.718;2023-06-10T06:54:44;23.40;98.20
23405;DHT22;11875;49.356;2.718;2023-06-10T06:57:10;23.50;98.60
23405;DHT22;11875;49.356;2.718;2023-06-10T06:59:36;23.50;98.60
23405;DHT22;11875;49.356;2.718;2023-06-10T07:02:02;23.50;98.50
23405;DHT22;11875;49.356;2.718;2023-06-10T07:04:28;23.60;98.60
23405;DHT22;11875;49.356;2.718;2023-06-10T07:06:54;23.90;98.50
23405;DHT22;11875;49.356;2.718;2023-06-10T07:09:19;24.10;98.50
23405;DHT22;11875;49.356;2.718;2023-06-10T07:11:45;24.60;98.20
23405;DHT22;11875;49.356;2.718;2023-06-10T07:14:11;25.20;97.60
23405;DHT22;11875;49.356;2.718;2023-06-10T07:16:36;25.70;97.10
23405;DHT22;11875;49.356;2.718;2023-06-10T07:19:02;26.10;96.50
23405;DHT22;11875;49.356;2.718;2023-06-10T07:21:29;26.50;96.20
23405;DHT22;11875;49.356;2.718;2023-06-10T07:23:54;26.60;96.00
23405;DHT22;11875;49.356;2.718;2023-06-10T07:26:22;26.70;95.80
23405;DHT22;11875;49.356;2.718;2023-06-10T07:28:48;26.80;95.70
23405;DHT22;11875;49.356;2.718;2023-06-10T07:31:13;27.20;95.50
23405;DHT22;11875;49.356;2.718;2023-06-10T07:33:39;27.30;95.30
23405;DHT22;11875;49.356;2.718;2023-06-10T07:36:06;27.30;95.10
23405;DHT22;11875;49.356;2.718;2023-06-10T07:38:31;27.30;95.20
23405;DHT22;11875;49.356;2.718;2023-06-10T07:40:57;27.50;95.40
23405;DHT22;11875;49.356;2.718;2023-06-10T07:43:24;27.70;95.10
23405;DHT22;11875;49.356;2.718;2023-06-10T07:45:49;27.90;94.80
23405;DHT22;11875;49.356;2.718;2023-06-10T07:48:15;28.00;94.70
23405;DHT22;11875;49.356;2.718;2023-06-10T07:50:41;28.00;94.50
23405;DHT22;11875;49.356;2.718;2023-06-10T07:53:06;28.20;94.70
23405;DHT22;11875;49.356;2.718;2023-06-10T07:55:32;28.30;94.50
23405;DHT22;11875;49.356;2.718;2023-06-10T07:57:58;28.30;94.50
23405;DHT22;11875;49.356;2.718;2023-06-10T08:00:23;28.50;94.20
23405;DHT22;11875;49.356;2.718;2023-06-10T08:02:49;28.60;94.10
23405;DHT22;11875;49.356;2.718;2023-06-10T08:05:16;28.80;94.00
23405;DHT22;11875;49.356;2.718;2023-06-10T08:07:42;28.80;93.90
23405;DHT22;11875;49.356;2.718;2023-06-10T08:10:08;28.90;93.70
23405;DHT22;11875;49.356;2.718;2023-06-10T08:12:34;29.00;93.40
23405;DHT22;11875;49.356;2.718;2023-06-10T08:15:00;29.10;93.30
23405;DHT22;11875;49.356;2.718;2023-06-10T08:17:26;29.20;92.90
23405;DHT22;11875;49.356;2.718;2023-06-10T08:19:51;29.20;93.10
23405;DHT22;11875;49.356;2.718;2023-06-10T08:22:17;29.30;93.30
23405;DHT22;11875;49.356;2.718;2023-06-10T08:24:43;29.40;92.80
23405;DHT22;11875;49.356;2.718;2023-06-10T08:27:08;29.60;92.90
23405;DHT22;11875;49.356;2.718;2023-06-10T08:29:34;29.70;93.20
23405;DHT22;11875;49.356;2.718;2023-06-10T08:32:00;29.70;92.90
23405;DHT22;11875;49.356;2.718;2023-06-10T08:34:26;29.80;92.90
23405;DHT22;11875;49.356;2.718;2023-06-10T08:36:51;29.80;92.80
23405;DHT22;11875;49.356;2.718;2023-06-10T08:39:19;29.90;92.10
23405;DHT22;11875;49.356;2.718;2023-06-10T08:44:36;30.40;91.30
23405;DHT22;11875;49.356;2.718;2023-06-10T08:47:13;30.60;91.70
23405;DHT22;11875;49.356;2.718;2023-06-10T08:49:43;30.70;91.20
23405;DHT22;11875;49.356;2.718;2023-06-10T08:52:15;30.90;91.00
23405;DHT22;11875;49.356;2.718;2023-06-10T08:54:43;31.00;91.80
23405;DHT22;11875;49.356;2.718;2023-06-10T08:57:12;30.90;91.30
23405;DHT22;11875;49.356;2.718;2023-06-10T08:59:38;31.00;90.90
23405;DHT22;11875;49.356;2.718;2023-06-10T09:02:05;31.00;90.10
23405;DHT22;11875;49.356;2.718;2023-06-10T09:04:31;31.00;90.10
23405;DHT22;11875;49.356;2.718;2023-06-10T09:06:57;31.00;90.10
23405;DHT22;11875;49.356;2.718;2023-06-10T09:09:25;30.70;90.30
23405;DHT22;11875;49.356;2.718;2023-06-10T09:11:52;30.90;90.60
23405;DHT22;11875;49.356;2.718;2023-06-10T09:14:18;30.70;90.10
23405;DHT22;11875;49.356;2.718;2023-06-10T09:16:43;30.90;90.20
23405;DHT22;11875;49.356;2.718;2023-06-10T09:19:12;31.00;89.90
23405;DHT22;11875;49.356;2.718;2023-06-10T09:21:38;31.20;89.10
23405;DHT22;11875;49.356;2.718;2023-06-10T09:24:05;31.20;89.60
23405;DHT22;11875;49.356;2.718;2023-06-10T09:26:30;31.30;89.40
23405;DHT22;11875;49.356;2.718;2023-06-10T09:29:04;31.40;89.70
23405;DHT22;11875;49.356;2.718;2023-06-10T09:31:31;31.60;89.80
23405;DHT22;11875;49.356;2.718;2023-06-10T09:34:13;31.80;88.70
23405;DHT22;11875;49.356;2.718;2023-06-10T09:36:40;31.90;88.10
23405;DHT22;11875;49.356;2.718;2023-06-10T09:39:16;31.70;87.90
23405;DHT22;11875;49.356;2.718;2023-06-10T09:41:43;31.80;87.90
23405;DHT22;11875;49.356;2.718;2023-06-10T09:44:20;31.90;87.00
23405;DHT22;11875;49.356;2.718;2023-06-10T09:46:47;32.00;87.40
23405;DHT22;11875;49.356;2.718;2023-06-10T09:49:13;32.00;87.20
23405;DHT22;11875;49.356;2.718;2023-06-10T09:51:52;32.00;86.40
23405;DHT22;11875;49.356;2.718;2023-06-10T09:54:19;31.90;86.90
23405;DHT22;11875;49.356;2.718;2023-06-10T09:56:47;31.90;87.00
23405;DHT22;11875;49.356;2.718;2023-06-10T09:59:13;31.90;87.10
23405;DHT22;11875;49.356;2.718;2023-06-10T10:01:39;31.90;87.20
23405;DHT22;11875;49.356;2.718;2023-06-10T10:04:04;31.80;87.00
23405;DHT22;11875;49.356;2.718;2023-06-10T10:06:30;31.70;86.90
23405;DHT22;11875;49.356;2.718;2023-06-10T10:08:56;31.60;88.00
23405;DHT22;11875;49.356;2.718;2023-06-10T10:11:22;31.90;86.30
23405;DHT22;11875;49.356;2.718;2023-06-10T10:13:50;32.10;86.30
23405;DHT22;11875;49.356;2.718;2023-06-10T10:16:21;32.00;84.60
23405;DHT22;11875;49.356;2.718;2023-06-10T10:18:58;31.70;85.70
23405;DHT22;11875;49.356;2.718;2023-06-10T10:21:28;31.90;85.90
23405;DHT22;11875;49.356;2.718;2023-06-10T10:24:09;31.90;85.70
23405;DHT22;11875;49.356;2.718;2023-06-10T10:26:38;31.70;85.30
23405;DHT22;11875;49.356;2.718;2023-06-10T10:31:35;31.40;85.90
23405;DHT22;11875;49.356;2.718;2023-06-10T10:34:06;31.50;85.80
23405;DHT22;11875;49.356;2.718;2023-06-10T10:36:32;31.50;86.10
23405;DHT22;11875;49.356;2.718;2023-06-10T10:38:58;31.70;86.60
23405;DHT22;11875;49.356;2.718;2023-06-10T10:41:27;32.10;86.30
23405;DHT22;11875;49.356;2.718;2023-06-10T10:43:53;32.20;85.50
23405;DHT22;11875;49.356;2.718;2023-06-10T10:46:19;32.20;85.90
23405;DHT22;11875;49.356;2.718;2023-06-10T10:48:46;32.00;86.20
23405;DHT22;11875;49.356;2.718;2023-06-10T10:51:17;32.10;86.30
23405;DHT22;11875;49.356;2.718;2023-06-10T10:53:42;32.20;85.90
23405;DHT22;11875;49.356;2.718;2023-06-10T10:56:14;32.40;85.70
23405;DHT22;11875;49.356;2.718;2023-06-10T10:58:40;32.60;85.70
23405;DHT22;11875;49.356;2.718;2023-06-10T11:01:13;32.90;85.00
23405;DHT22;11875;49.356;2.718;2023-06-10T11:03:44;32.90;86.40
23405;DHT22;11875;49.356;2.718;2023-06-10T11:06:14;32.80;85.70
23405;DHT22;11875;49.356;2.718;2023-06-10T11:11:24;32.60;85.50
23405;DHT22;11875;49.356;2.718;2023-06-10T11:16:43;32.30;85.80
23405;DHT22;11875;49.356;2.718;2023-06-10T11:19:09;32.10;85.50
23405;DHT22;11875;49.356;2.718;2023-06-10T11:21:58;32.10;86.30
23405;DHT22;11875;49.356;2.718;2023-06-10T11:24:25;32.20;87.30
23405;DHT22;11875;49.356;2.718;2023-06-10T11:26:51;32.00;87.40
23405;DHT22;11875;49.356;2.718;2023-06-10T11:29:17;31.90;88.10
23405;DHT22;11875;49.356;2.718;2023-06-10T11:31:49;31.90;88.70
23405;DHT22;11875;49.356;2.718;2023-06-10T11:34:15;32.00;88.50
23405;DHT22;11875;49.356;2.718;2023-06-10T11:36:46;32.30;89.10
23405;DHT22;11875;49.356;2.718;2023-06-10T11:39:12;32.30;87.20
23405;DHT22;11875;49.356;2.718;2023-06-10T11:41:39;32.30;87.00
23405;DHT22;11875;49.356;2.718;2023-06-10T11:44:09;32.60;87.40
23405;DHT22;11875;49.356;2.718;2023-06-10T11:46:35;32.80;86.80
23405;DHT22;11875;49.356;2.718;2023-06-10T11:49:02;32.60;85.80
23405;DHT22;11875;49.356;2.718;2023-06-10T11:51:33;32.50;86.50
23405;DHT22;11875;49.356;2.718;2023-06-10T11:53:59;32.40;86.70
23405;DHT22;11875;49.356;2.718;2023-06-10T11:56:27;32.10;86.90
23405;DHT22;11875;49.356;2.718;2023-06-10T11:59:03;31.80;87.70
23405;DHT22;11875;49.356;2.718;2023-06-10T12:01:32;31.70;87.40
23405;DHT22;11875;49.356;2.718;2023-06-10T12:06:23;31.90;87.30
23405;DHT22;11875;49.356;2.718;2023-06-10T12:08:49;32.00;87.30
23405;DHT22;11875;49.356;2.718;2023-06-10T12:11:15;32.40;85.70
23405;DHT22;11875;49.356;2.718;2023-06-10T12:13:48;32.70;85.80
23405;DHT22;11875;49.356;2.718;2023-06-10T12:16:15;32.90;85.10
23405;DHT22;11875;49.356;2.718;2023-06-10T12:18:45;32.60;85.90
23405;DHT22;11875;49.356;2.718;2023-06-10T12:21:23;32.70;86.40
23405;DHT22;11875;49.356;2.718;2023-06-10T12:24:09;32.50;84.10
23405;DHT22;11875;49.356;2.718;2023-06-10T12:26:43;32.30;84.90
23405;DHT22;11875;49.356;2.718;2023-06-10T12:31:54;32.40;84.90
23405;DHT22;11875;49.356;2.718;2023-06-10T12:34:37;32.40;84.90
23405;DHT22;11875;49.356;2.718;2023-06-10T12:37:10;32.10;85.00
23405;DHT22;11875;49.356;2.718;2023-06-10T12:39:39;32.40;85.90
23405;DHT22;11875;49.356;2.718;2023-06-10T12:42:05;32.70;85.50
23405;DHT22;11875;49.356;2.718;2023-06-10T12:44:38;33.00;85.20
23405;DHT22;11875;49.356;2.718;2023-06-10T12:47:08;33.20;84.20
23405;DHT22;11875;49.356;2.718;2023-06-10T12:49:34;33.20;83.70
23405;DHT22;11875;49.356;2.718;2023-06-10T12:52:00;33.00;84.00
23405;DHT22;11875;49.356;2.718;2023-06-10T12:54:26;32.90;84.10
23405;DHT22;11875;49.356;2.718;2023-06-10T12:56:52;32.90;85.10
23405;DHT22;11875;49.356;2.718;2023-06-10T12:59:18;33.10;84.80
23405;DHT22;11875;49.356;2.718;2023-06-10T13:01:49;32.70;85.40
23405;DHT22;11875;49.356;2.718;2023-06-10T13:04:16;32.80;84.70
23405;DHT22;11875;49.356;2.718;2023-06-10T13:06:43;33.10;85.20
23405;DHT22;11875;49.356;2.718;2023-06-10T13:09:09;33.50;85.30
23405;DHT22;11875;49.356;2.718;2023-06-10T13:11:35;33.60;83.10
23405;DHT22;11875;49.356;2.718;2023-06-10T13:14:02;33.50;83.30
23405;DHT22;11875;49.356;2.718;2023-06-10T13:16:28;33.30;84.10
23405;DHT22;11875;49.356;2.718;2023-06-10T13:18:54;32.90;85.30
23405;DHT22;11875;49.356;2.718;2023-06-10T13:21:19;32.80;85.80
23405;DHT22;11875;49.356;2.718;2023-06-10T13:23:46;33.00;85.80
23405;DHT22;11875;49.356;2.718;2023-06-10T13:26:14;33.40;85.30
23405;DHT22;11875;49.356;2.718;2023-06-10T13:28:39;33.50;85.40
23405;DHT22;11875;49.356;2.718;2023-06-10T13:31:05;33.50;84.80
23405;DHT22;11875;49.356;2.718;2023-06-10T13:33:31;33.50;84.10
23405;DHT22;11875;49.356;2.718;2023-06-10T13:35:56;33.10;84.70
23405;DHT22;11875;49.356;2.718;2023-06-10T13:38:22;33.00;85.40
23405;DHT22;11875;49.356;2.718;2023-06-10T13:40:48;32.90;85.60
23405;DHT22;11875;49.356;2.718;2023-06-10T13:43:13;33.10;85.80
23405;DHT22;11875;49.356;2.718;2023-06-10T13:45:39;33.30;85.50
23405;DHT22;11875;49.356;2.718;2023-06-10T13:48:05;33.00;84.80
23405;DHT22;11875;49.356;2.718;2023-06-10T13:50:31;32.90;85.20
23405;DHT22;11875;49.356;2.718;2023-06-10T13:52:57;32.80;85.70
23405;DHT22;11875;49.356;2.718;2023-06-10T13:55:22;33.00;84.80
23405;DHT22;11875;49.356;2.718;2023-06-10T13:57:50;32.90;85.20
23405;DHT22;11875;49.356;2.718;2023-06-10T14:00:16;32.90;85.40
23405;DHT22;11875;49.356;2.718;2023-06-10T14:02:42;33.10;84.80
23405;DHT22;11875;49.356;2.718;2023-06-10T14:05:07;32.90;84.10
23405;DHT22;11875;49.356;2.718;2023-06-10T14:07:34;32.80;85.20
23405;DHT22;11875;49.356;2.718;2023-06-10T14:09:59;32.60;85.50
23405;DHT22;11875;49.356;2.718;2023-06-10T14:12:25;32.50;84.90
23405;DHT22;11875;49.356;2.718;2023-06-10T14:14:51;32.10;86.00
23405;DHT22;11875;49.356;2.718;2023-06-10T14:17:16;32.00;85.70
23405;DHT22;11875;49.356;2.718;2023-06-10T14:19:42;31.90;87.10
23405;DHT22;11875;49.356;2.718;2023-06-10T14:22:07;31.90;86.60
23405;DHT22;11875;49.356;2.718;2023-06-10T14:24:34;32.10;86.70
23405;DHT22;11875;49.356;2.718;2023-06-10T14:27:00;32.20;86.60
23405;DHT22;11875;49.356;2.718;2023-06-10T14:29:26;32.30;86.90
23405;DHT22;11875;49.356;2.718;2023-06-10T14:31:54;32.40;86.80
23405;DHT22;11875;49.356;2.718;2023-06-10T14:34:20;32.50;86.30
23405;DHT22;11875;49.356;2.718;2023-06-10T14:36:46;32.70;86.00
23405;DHT22;11875;49.356;2.718;2023-06-10T14:39:11;32.50;85.30
23405;DHT22;11875;49.356;2.718;2023-06-10T14:41:37;32.40;86.10
23405;DHT22;11875;49.356;2.718;2023-06-10T14:44:03;32.70;85.80
23405;DHT22;11875;49.356;2.718;2023-06-10T14:46:28;33.10;85.10
23405;DHT22;11875;49.356;2.718;2023-06-10T14:48:54;33.30;85.20
23405;DHT22;11875;49.356;2.718;2023-06-10T14:51:19;33.50;83.80
23405;DHT22;11875;49.356;2.718;2023-06-10T14:53:46;33.70;83.10
23405;DHT22;11875;49.356;2.718;2023-06-10T14:56:12;33.20;83.80
23405;DHT22;11875;49.356;2.718;2023-06-10T14:58:39;32.80;83.60
23405;DHT22;11875;49.356;2.718;2023-06-10T15:01:04;32.30;83.90
23405;DHT22;11875;49.356;2.718;2023-06-10T15:03:30;32.10;83.80
23405;DHT22;11875;49.356;2.718;2023-06-10T15:05:56;31.90;83.80
23405;DHT22;11875;49.356;2.718;2023-06-10T15:08:21;32.20;83.00
23405;DHT22;11875;49.356;2.718;2023-06-10T15:10:47;32.50;83.40
23405;DHT22;11875;49.356;2.718;2023-06-10T15:13:13;32.50;84.60
23405;DHT22;11875;49.356;2.718;2023-06-10T15:15:39;32.70;84.80
23405;DHT22;11875;49.356;2.718;2023-06-10T15:18:05;32.70;84.00
23405;DHT22;11875;49.356;2.718;2023-06-10T15:20:30;32.90;83.60
23405;DHT22;11875;49.356;2.718;2023-06-10T15:22:56;32.90;83.50
23405;DHT22;11875;49.356;2.718;2023-06-10T15:25:22;33.00;83.70
23405;DHT22;11875;49.356;2.718;2023-06-10T15:27:47;32.90;82.10
23405;DHT22;11875;49.356;2.718;2023-06-10T15:30:13;33.00;82.90
23405;DHT22;11875;49.356;2.718;2023-06-10T15:32:39;32.90;83.80
23405;DHT22;11875;49.356;2.718;2023-06-10T15:35:05;32.90;83.20
23405;DHT22;11875;49.356;2.718;2023-06-10T15:37:30;32.80;84.50
23405;DHT22;11875;49.356;2.718;2023-06-10T15:39:56;32.70;84.70
23405;DHT22;11875;49.356;2.718;2023-06-10T15:42:21;32.70;84.10
23405;DHT22;11875;49.356;2.718;2023-06-10T15:44:48;32.50;84.90
23405;DHT22;11875;49.356;2.718;2023-06-10T15:47:14;32.40;85.40
23405;DHT22;11875;49.356;2.718;2023-06-10T15:49:40;32.20;85.50